createdAt,value
2023-04-02T00:02:32.431Z,95070.47
2023-04-02T00:05:28.060Z,95072.50
2023-04-02T00:07:55.294Z,95083.94
2023-04-02T00:10:29.160Z,95082.13
2023-04-02T00:13:01.485Z,95081.75
2023-04-02T00:15:29.278Z,95080.13
2023-04-02T00:17:57.119Z,95082.53
2023-04-02T00:20:28.554Z,95080.53
2023-04-02T00:22:56.409Z,95071.69
2023-04-02T00:25:27.704Z,95074.28
2023-04-02T00:27:55.102Z,95068.47
2023-04-02T00:30:23.295Z,95081.13
2023-04-02T00:32:52.472Z,95069.00
2023-04-02T00:35:27.600Z,95073.41
2023-04-02T00:37:56.773Z,95081.84
2023-04-02T00:40:28.077Z,95079.44
2023-04-02T00:43:00.092Z,95075.16
2023-04-02T00:45:31.336Z,95065.75
2023-04-02T00:48:13.527Z,95069.72
2023-04-02T00:50:46.178Z,95070.75
2023-04-02T00:53:24.198Z,95068.91
2023-04-02T00:55:52.421Z,95073.81
2023-04-02T00:58:27.751Z,95063.97
2023-04-02T01:00:55.137Z,95070.16
2023-04-02T01:03:32.361Z,95059.59
2023-04-02T01:06:05.836Z,95064.63
2023-04-02T01:08:51.536Z,95073.59
2023-04-02T01:11:49.675Z,95070.81
2023-04-02T01:14:28.746Z,95076.06
2023-04-02T01:17:11.898Z,95082.41
2023-04-02T01:20:16.880Z,95080.88
2023-04-02T01:22:57.393Z,95078.34
2023-04-02T01:25:35.715Z,95079.72
2023-04-02T01:28:13.153Z,95081.91
2023-04-02T01:30:49.431Z,95081.78
2023-04-02T01:33:17.331Z,95087.75
2023-04-02T01:35:55.809Z,95073.63
2023-04-02T01:38:34.139Z,95075.25
2023-04-02T01:41:12.111Z,95076.88
2023-04-02T01:43:48.272Z,95081.91
2023-04-02T01:46:29.199Z,95080.41
2023-04-02T01:49:00.211Z,95078.34
2023-04-02T01:51:31.737Z,95077.56
2023-04-02T01:54:02.938Z,95077.41
2023-04-02T01:56:31.268Z,95075.34
2023-04-02T01:58:59.833Z,95079.50
2023-04-02T02:01:36.890Z,95081.44
2023-04-02T02:04:04.668Z,95077.69
2023-04-02T02:06:32.128Z,95084.75
2023-04-02T02:09:03.992Z,95093.00
2023-04-02T02:11:33.633Z,95099.44
2023-04-02T02:14:05.171Z,95096.72
2023-04-02T02:16:38.582Z,95093.94
2023-04-02T02:19:06.221Z,95095.00
2023-04-02T02:21:42.428Z,95099.47
2023-04-02T02:24:19.934Z,95101.19
2023-04-02T02:26:54.401Z,95104.28
2023-04-02T02:29:27.313Z,95110.59
2023-04-02T02:32:00.062Z,95117.09
2023-04-02T02:34:37.213Z,95115.50
2023-04-02T02:37:12.734Z,95118.91
2023-04-02T02:39:45.036Z,95117.78
2023-04-02T02:42:19.866Z,95116.50
2023-04-02T02:44:50.783Z,95104.16
2023-04-02T02:47:25.152Z,95110.34
2023-04-02T02:49:58.996Z,95101.88
2023-04-02T02:52:29.016Z,95109.44
2023-04-02T02:55:01.351Z,95109.31
2023-04-02T02:57:33.410Z,95107.81
2023-04-02T03:00:03.421Z,95104.84
2023-04-02T03:02:36.380Z,95104.19
2023-04-02T03:05:04.528Z,95104.50
2023-04-02T03:07:32.289Z,95108.63
2023-04-02T03:10:07.090Z,95114.94
2023-04-02T03:12:45.411Z,95120.41
2023-04-02T03:15:21.760Z,95108.06
2023-04-02T03:17:58.177Z,95114.81
2023-04-02T03:20:35.361Z,95116.63
2023-04-02T03:23:13.720Z,95128.56
2023-04-02T03:25:49.450Z,95115.38
2023-04-02T03:28:23.519Z,95114.81
2023-04-02T03:30:58.853Z,95110.38
2023-04-02T03:33:35.532Z,95118.38
2023-04-02T03:36:16.326Z,95125.44
2023-04-02T03:38:49.392Z,95126.94
2023-04-02T03:41:21.515Z,95127.75
2023-04-02T03:43:57.772Z,95127.88
2023-04-02T03:46:31.642Z,95130.28
2023-04-02T03:49:06.813Z,95129.56
2023-04-02T03:51:40.953Z,95128.09
2023-04-02T03:54:15.254Z,95139.84
2023-04-02T03:56:46.577Z,95141.91
2023-04-02T03:59:25.571Z,95135.06
2023-04-02T04:01:59.920Z,95134.59
2023-04-02T04:04:31.918Z,95136.97
2023-04-02T04:07:01.696Z,95139.84
2023-04-02T04:09:35.012Z,95136.78
2023-04-02T04:12:14.870Z,95141.34
2023-04-02T04:14:49.729Z,95142.38
2023-04-02T04:17:25.331Z,95148.31
2023-04-02T04:20:00.383Z,95141.47
2023-04-02T04:22:29.536Z,95148.06
2023-04-02T04:24:58.134Z,95149.41
2023-04-02T04:27:33.674Z,95152.47
2023-04-02T04:30:13.579Z,95149.31
2023-04-02T04:32:48.713Z,95148.50
2023-04-02T04:35:28.738Z,95143.84
2023-04-02T04:38:00.134Z,95151.13
2023-04-02T04:40:31.819Z,95156.38
2023-04-02T04:43:06.312Z,95154.41
2023-04-02T04:45:46.746Z,95157.66
2023-04-02T04:48:20.548Z,95158.88
2023-04-02T04:50:56.131Z,95157.34
2023-04-02T04:53:26.272Z,95160.56
2023-04-02T04:55:58.259Z,95164.56
2023-04-02T04:58:36.320Z,95169.34
2023-04-02T05:01:10.682Z,95163.84
2023-04-02T05:03:45.303Z,95165.47
2023-04-02T05:06:22.572Z,95169.78
2023-04-02T05:08:55.741Z,95171.47
2023-04-02T05:11:31.832Z,95173.75
2023-04-02T05:14:05.413Z,95176.06
2023-04-02T05:16:42.069Z,95173.97
2023-04-02T05:19:17.025Z,95173.84
2023-04-02T05:21:52.083Z,95167.34
2023-04-02T05:24:43.897Z,95172.41
2023-04-02T05:27:24.874Z,95177.75
2023-04-02T05:30:00.788Z,95176.72
2023-04-02T05:32:34.742Z,95190.25
2023-04-02T05:35:03.314Z,95183.59
2023-04-02T05:37:32.398Z,95187.09
2023-04-02T05:40:13.690Z,95202.13
2023-04-02T05:42:49.201Z,95193.84
2023-04-02T05:45:27.117Z,95194.88
2023-04-02T05:47:57.725Z,95194.25
2023-04-02T05:50:28.841Z,95199.31
2023-04-02T05:53:06.414Z,95192.75
2023-04-02T05:55:54.333Z,95195.59
2023-04-02T05:58:36.062Z,95196.41
2023-04-02T06:01:21.232Z,95195.53
2023-04-02T06:03:57.563Z,95199.38
2023-04-02T06:06:43.752Z,95197.75
2023-04-02T06:09:19.213Z,95207.19
2023-04-02T06:11:52.296Z,95209.00
2023-04-02T06:14:19.676Z,95204.06
2023-04-02T06:16:47.592Z,95215.81
2023-04-02T06:19:22.811Z,95204.13
2023-04-02T06:21:57.890Z,95211.34
2023-04-02T06:24:31.062Z,95210.91
2023-04-02T06:27:04.093Z,95210.13
2023-04-02T06:29:34.933Z,95214.50
2023-04-02T06:32:02.947Z,95222.91
2023-04-02T06:34:32.136Z,95223.63
2023-04-02T06:37:02.378Z,95232.69
2023-04-02T06:39:31.111Z,95225.91
2023-04-02T06:42:04.397Z,95228.22
2023-04-02T06:44:36.249Z,95230.28
2023-04-02T06:47:13.197Z,95228.63
2023-04-02T06:49:47.208Z,95238.75
2023-04-02T06:52:23.258Z,95227.16
2023-04-02T06:54:52.400Z,95240.66
2023-04-02T06:57:19.629Z,95236.47
2023-04-02T06:59:46.942Z,95245.50
2023-04-02T07:02:26.991Z,95247.38
2023-04-02T07:05:01.480Z,95241.06
2023-04-02T07:07:28.761Z,95248.06
2023-04-02T07:09:57.348Z,95246.34
2023-04-02T07:12:25.801Z,95242.03
2023-04-02T07:14:53.624Z,95240.75
2023-04-02T07:17:21.243Z,95247.06
2023-04-02T07:19:48.569Z,95248.09
2023-04-02T07:22:16.350Z,95251.19
2023-04-02T07:24:43.560Z,95253.97
2023-04-02T07:27:13.391Z,95254.63
2023-04-02T07:29:40.569Z,95265.28
2023-04-02T07:32:07.826Z,95259.56
2023-04-02T07:34:34.948Z,95270.53
2023-04-02T07:37:02.113Z,95272.03
2023-04-02T07:39:29.383Z,95274.06
2023-04-02T07:41:58.575Z,95279.91
2023-04-02T07:44:27.166Z,95281.66
2023-04-02T07:46:55.096Z,95284.66
2023-04-02T07:49:22.590Z,95280.91
2023-04-02T07:51:51.483Z,95277.47
2023-04-02T07:54:18.621Z,95289.53
2023-04-02T07:56:46.000Z,95285.72
2023-04-02T07:59:13.316Z,95286.91
2023-04-02T08:01:41.853Z,95300.91
2023-04-02T08:04:17.945Z,95300.19
2023-04-02T08:06:45.631Z,95300.66
2023-04-02T08:09:12.769Z,95302.94
2023-04-02T08:11:39.912Z,95303.06
2023-04-02T08:14:07.033Z,95298.31
2023-04-02T08:16:49.544Z,95305.28
2023-04-02T08:19:17.842Z,95303.13
2023-04-02T08:21:45.933Z,95309.78
2023-04-02T08:24:13.155Z,95311.84
2023-04-02T08:26:40.325Z,95312.19
2023-04-02T08:29:07.413Z,95312.72
2023-04-02T08:31:34.507Z,95308.94
2023-04-02T08:34:03.076Z,95310.09
2023-04-02T08:36:34.795Z,95307.47
2023-04-02T08:39:02.102Z,95309.97
2023-04-02T08:41:29.294Z,95309.06
2023-04-02T08:44:19.323Z,95309.91
2023-04-02T08:46:52.553Z,95315.22
2023-04-02T08:49:31.638Z,95320.59
2023-04-02T08:52:00.014Z,95320.19
2023-04-02T08:54:31.602Z,95321.31
2023-04-02T08:57:05.016Z,95320.84
2023-04-02T08:59:34.837Z,95324.47
2023-04-02T09:02:23.777Z,95326.56
2023-04-02T09:04:52.989Z,95333.25
2023-04-02T09:07:20.357Z,95333.69
2023-04-02T09:09:49.779Z,95339.09
2023-04-02T09:12:19.972Z,95332.19
2023-04-02T09:15:04.770Z,95336.06
2023-04-02T09:17:42.787Z,95346.50
2023-04-02T09:20:24.096Z,95340.09
2023-04-02T09:22:52.872Z,95343.09
2023-04-02T09:25:23.073Z,95343.41
2023-04-02T09:27:53.251Z,95351.78
2023-04-02T09:30:40.753Z,95357.63
2023-04-02T09:33:08.091Z,95357.88
2023-04-02T09:35:38.801Z,95362.34
2023-04-02T09:38:20.155Z,95356.50
2023-04-02T09:40:50.617Z,95366.13
2023-04-02T09:43:20.596Z,95360.03
2023-04-02T09:45:58.385Z,95361.00
2023-04-02T09:48:28.858Z,95367.75
2023-04-02T09:51:16.037Z,95370.38
2023-04-02T09:53:45.242Z,95379.88
2023-04-02T09:56:15.840Z,95378.06
2023-04-02T09:58:45.393Z,95376.09
2023-04-02T10:01:28.422Z,95382.41
2023-04-02T10:03:56.385Z,95383.91
2023-04-02T10:06:27.754Z,95383.22
2023-04-02T10:08:55.713Z,95388.16
2023-04-02T10:11:36.561Z,95391.22
2023-04-02T10:14:18.151Z,95389.72
2023-04-02T10:16:51.840Z,95389.53
2023-04-02T10:19:29.254Z,95392.97
2023-04-02T10:22:02.610Z,95400.88
2023-04-02T10:24:29.850Z,95406.84
2023-04-02T10:27:11.593Z,95402.13
2023-04-02T10:29:58.672Z,95408.75
2023-04-02T10:32:34.988Z,95405.13
2023-04-02T10:35:10.132Z,95403.56
2023-04-02T10:38:09.624Z,95414.03
2023-04-02T10:40:42.741Z,95415.00
2023-04-02T10:43:37.353Z,95411.44
2023-04-02T10:46:13.379Z,95414.53
2023-04-02T10:48:51.518Z,95410.13
2023-04-02T10:51:35.499Z,95421.34
2023-04-02T10:54:23.571Z,95427.47
2023-04-02T10:56:53.901Z,95415.00
2023-04-02T10:59:27.907Z,95424.13
2023-04-02T11:02:00.628Z,95430.13
2023-04-02T11:04:36.613Z,95428.03
2023-04-02T11:07:14.354Z,95424.41
2023-04-02T11:09:48.771Z,95424.84
2023-04-02T11:12:25.742Z,95428.03
2023-04-02T11:14:55.813Z,95420.75
2023-04-02T11:17:25.191Z,95437.84
2023-04-02T11:19:52.454Z,95434.28
2023-04-02T11:22:22.684Z,95429.91
2023-04-02T11:24:54.113Z,95427.47
2023-04-02T11:27:26.862Z,95431.19
2023-04-02T11:30:06.778Z,95439.84
2023-04-02T11:32:39.920Z,95436.47
2023-04-02T11:35:36.583Z,95441.06
2023-04-02T11:38:52.396Z,95438.56
2023-04-02T11:42:04.598Z,95444.63
2023-04-02T11:44:33.240Z,95446.59
2023-04-02T11:47:18.037Z,95448.28
2023-04-02T11:50:26.716Z,95451.44
2023-04-02T11:52:57.592Z,95455.91
2023-04-02T11:55:30.641Z,95461.19
2023-04-02T11:58:23.174Z,95465.84
2023-04-02T12:01:54.432Z,95461.63
2023-04-02T12:04:49.533Z,95472.22
2023-04-02T12:07:50.233Z,95471.00
2023-04-02T12:10:20.337Z,95467.47
2023-04-02T12:12:47.693Z,95468.75
2023-04-02T12:15:43.392Z,95473.81
2023-04-02T12:18:23.035Z,95476.81
2023-04-02T12:20:52.822Z,95474.19
2023-04-02T12:23:24.290Z,95483.53
2023-04-02T12:25:57.191Z,95472.16
2023-04-02T12:28:25.515Z,95483.22
2023-04-02T12:31:04.739Z,95486.81
2023-04-02T12:33:36.347Z,95483.97
2023-04-02T12:36:05.981Z,95481.75
2023-04-02T12:38:36.783Z,95486.44
2023-04-02T12:41:06.748Z,95487.06
2023-04-02T12:43:36.093Z,95487.59
2023-04-02T12:46:06.756Z,95485.06
2023-04-02T12:48:36.732Z,95485.19
2023-04-02T12:51:05.029Z,95483.75
2023-04-02T12:53:39.235Z,95490.78
2023-04-02T12:56:07.932Z,95490.06
2023-04-02T12:58:38.251Z,95488.88
2023-04-02T13:01:15.800Z,95487.38
2023-04-02T13:03:44.835Z,95490.22
2023-04-02T13:06:24.910Z,95496.06
2023-04-02T13:08:52.449Z,95488.97
2023-04-02T13:11:20.657Z,95492.41
2023-04-02T13:13:48.692Z,95491.06
2023-04-02T13:16:28.615Z,95489.81
2023-04-02T13:19:21.200Z,95487.16
2023-04-02T13:21:48.469Z,95483.44
2023-04-02T13:24:20.140Z,95487.97
2023-04-02T13:26:47.945Z,95491.69
2023-04-02T13:29:21.284Z,95490.06
2023-04-02T13:31:48.798Z,95486.78
2023-04-02T13:34:17.562Z,95485.63
2023-04-02T13:36:44.923Z,95492.81
2023-04-02T13:39:12.153Z,95487.56
2023-04-02T13:41:43.343Z,95481.44
2023-04-02T13:44:23.213Z,95482.41
2023-04-02T13:46:51.357Z,95489.50
2023-04-02T13:49:20.256Z,95486.59
2023-04-02T13:51:49.342Z,95485.16
2023-04-02T13:54:25.039Z,95480.00
2023-04-02T13:56:52.809Z,95485.19
2023-04-02T13:59:20.374Z,95481.97
2023-04-02T14:01:49.745Z,95493.72
2023-04-02T14:04:22.072Z,95488.38
2023-04-02T14:07:28.133Z,95486.78
2023-04-02T14:10:05.175Z,95488.66
2023-04-02T14:12:50.934Z,95481.16
2023-04-02T14:15:33.150Z,95484.22
2023-04-02T14:18:18.440Z,95481.38
2023-04-02T14:20:58.952Z,95484.59
2023-04-02T14:23:43.966Z,95493.19
2023-04-02T14:26:23.821Z,95491.63
2023-04-02T14:29:05.624Z,95503.63
2023-04-02T14:31:39.380Z,95499.53
2023-04-02T14:34:17.148Z,95498.75
2023-04-02T14:37:00.618Z,95500.53
2023-04-02T14:39:41.422Z,95499.47
2023-04-02T14:42:16.119Z,95502.09
2023-04-02T14:44:51.437Z,95508.63
2023-04-02T14:47:25.868Z,95502.31
2023-04-02T14:49:59.215Z,95501.31
2023-04-02T14:52:34.112Z,95511.91
2023-04-02T14:55:05.574Z,95505.47
2023-04-02T14:57:38.895Z,95518.19
2023-04-02T15:00:16.135Z,95514.97
2023-04-02T15:02:47.254Z,95513.78
2023-04-02T15:05:18.857Z,95510.19
2023-04-02T15:07:52.472Z,95520.25
2023-04-02T15:10:26.436Z,95519.03
2023-04-02T15:12:56.792Z,95518.84
2023-04-02T15:15:40.762Z,95519.91
2023-04-02T15:18:13.847Z,95524.41
2023-04-02T15:20:54.842Z,95514.50
2023-04-02T15:23:43.076Z,95519.78
2023-04-02T15:26:22.405Z,95524.06
2023-04-02T15:29:03.776Z,95527.06
2023-04-02T15:31:34.126Z,95525.22
2023-04-02T15:34:21.251Z,95526.41
2023-04-02T15:37:01.612Z,95528.06
2023-04-02T15:39:51.854Z,95522.16
2023-04-02T15:42:24.070Z,95529.25
2023-04-02T15:45:25.905Z,95521.56
2023-04-02T15:48:08.446Z,95528.22
2023-04-02T15:50:59.090Z,95520.97
2023-04-02T15:53:39.430Z,95517.97
2023-04-02T15:56:24.022Z,95518.59
2023-04-02T15:59:32.994Z,95521.28
2023-04-02T16:02:22.514Z,95526.75
2023-04-02T16:05:02.481Z,95523.72
2023-04-02T16:07:51.912Z,95529.56
2023-04-02T16:10:39.988Z,95524.75
2023-04-02T16:13:18.157Z,95531.41
2023-04-02T16:15:52.853Z,95525.13
2023-04-02T16:18:33.198Z,95537.88
2023-04-02T16:21:02.982Z,95540.91
2023-04-02T16:23:35.295Z,95543.91
2023-04-02T16:26:22.286Z,95541.16
2023-04-02T16:29:07.496Z,95539.75
2023-04-02T16:31:50.367Z,95552.28
2023-04-02T16:34:32.396Z,95545.66
2023-04-02T16:37:08.254Z,95556.78
2023-04-02T16:39:46.873Z,95557.38
2023-04-02T16:42:30.374Z,95560.06
2023-04-02T16:45:18.052Z,95566.53
2023-04-02T16:47:59.748Z,95570.38
2023-04-02T16:50:41.202Z,95577.88
2023-04-02T16:53:24.758Z,95584.75
2023-04-02T16:56:14.614Z,95581.94
2023-04-02T16:58:55.014Z,95585.19
2023-04-02T17:01:34.003Z,95582.97
2023-04-02T17:04:29.533Z,95590.44
2023-04-02T17:07:10.273Z,95597.72
2023-04-02T17:09:49.056Z,95595.69
2023-04-02T17:12:21.612Z,95593.25
2023-04-02T17:14:52.951Z,95598.13
2023-04-02T17:17:23.895Z,95606.63
2023-04-02T17:19:58.351Z,95601.56
2023-04-02T17:22:25.713Z,95610.88
2023-04-02T17:24:58.374Z,95608.53
2023-04-02T17:27:32.735Z,95612.53
2023-04-02T17:30:06.871Z,95608.97
2023-04-02T17:32:35.642Z,95608.81
2023-04-02T17:35:18.444Z,95603.28
2023-04-02T17:37:55.115Z,95610.88
2023-04-02T17:40:31.733Z,95616.84
2023-04-02T17:43:10.422Z,95615.72
2023-04-02T17:45:48.158Z,95608.47
2023-04-02T17:48:27.960Z,95620.34
2023-04-02T17:51:09.617Z,95623.03
2023-04-02T17:54:00.122Z,95629.16
2023-04-02T17:56:47.897Z,95642.50
2023-04-02T17:59:35.094Z,95639.50
2023-04-02T18:02:30.288Z,95638.91
2023-04-02T18:05:16.214Z,95637.31
2023-04-02T18:07:55.682Z,95643.75
2023-04-02T18:10:32.217Z,95643.38
2023-04-02T18:13:14.834Z,95643.75
2023-04-02T18:15:56.497Z,95642.16
2023-04-02T18:19:00.991Z,95641.34
2023-04-02T18:21:37.040Z,95650.63
2023-04-02T18:24:24.235Z,95652.25
2023-04-02T18:27:07.752Z,95653.66
2023-04-02T18:29:49.115Z,95653.06
2023-04-02T18:32:49.380Z,95661.91
2023-04-02T18:35:25.515Z,95665.16
2023-04-02T18:38:13.657Z,95667.78
2023-04-02T18:40:56.057Z,95666.34
2023-04-02T18:43:37.756Z,95671.38
2023-04-02T18:46:15.644Z,95669.97
2023-04-02T18:48:55.957Z,95676.59
2023-04-02T18:51:25.270Z,95683.88
2023-04-02T18:54:03.058Z,95689.09
2023-04-02T18:56:32.446Z,95682.44
2023-04-02T18:59:14.483Z,95678.44
2023-04-02T19:01:47.633Z,95681.22
2023-04-02T19:04:20.717Z,95681.03
2023-04-02T19:06:54.816Z,95684.47
2023-04-02T19:09:31.857Z,95691.09
2023-04-02T19:11:59.356Z,95698.97
2023-04-02T19:14:26.501Z,95701.75
2023-04-02T19:17:10.390Z,95701.38
2023-04-02T19:19:50.055Z,95703.19
2023-04-02T19:22:33.812Z,95705.81
2023-04-02T19:25:21.077Z,95703.00
2023-04-02T19:28:05.515Z,95706.59
2023-04-02T19:30:49.693Z,95711.84
2023-04-02T19:33:39.947Z,95714.25
2023-04-02T19:36:26.322Z,95717.25
2023-04-02T19:39:17.480Z,95713.25
2023-04-02T19:41:52.233Z,95721.06
2023-04-02T19:44:21.105Z,95721.66
2023-04-02T19:46:48.923Z,95732.34
2023-04-02T19:49:21.113Z,95730.50
2023-04-02T19:51:48.770Z,95743.38
2023-04-02T19:54:16.235Z,95732.09
2023-04-02T19:56:43.623Z,95734.72
2023-04-02T19:59:17.985Z,95745.56
2023-04-02T20:01:46.099Z,95753.84
2023-04-02T20:04:13.658Z,95745.00
2023-04-02T20:06:40.977Z,95748.72
2023-04-02T20:09:08.511Z,95745.09
2023-04-02T20:11:37.274Z,95743.00
2023-04-02T20:14:05.588Z,95749.00
2023-04-02T20:16:34.579Z,95740.41
2023-04-02T20:19:01.779Z,95743.75
2023-04-02T20:21:29.795Z,95747.03
2023-04-02T20:23:56.995Z,95746.72
2023-04-02T20:26:24.236Z,95754.91
2023-04-02T20:28:51.812Z,95755.91
2023-04-02T20:31:19.563Z,95745.63
2023-04-02T20:33:48.455Z,95751.94
2023-04-02T20:36:17.505Z,95758.81
2023-04-02T20:38:44.637Z,95764.84
2023-04-02T20:41:12.052Z,95761.81
2023-04-02T20:43:39.221Z,95760.16
2023-04-02T20:46:08.240Z,95758.72
2023-04-02T20:48:36.919Z,95763.75
2023-04-02T20:51:08.000Z,95767.16
2023-04-02T20:53:37.580Z,95770.34
2023-04-02T20:56:06.537Z,95780.84
2023-04-02T20:58:34.797Z,95774.56
2023-04-02T21:01:15.046Z,95770.94
2023-04-02T21:03:42.405Z,95772.34
2023-04-02T21:06:17.646Z,95771.31
2023-04-02T21:08:46.020Z,95769.72
2023-04-02T21:11:14.773Z,95764.66
2023-04-02T21:13:42.945Z,95768.28
2023-04-02T21:16:15.420Z,95773.53
2023-04-02T21:18:42.804Z,95767.66
2023-04-02T21:21:12.339Z,95772.50
2023-04-02T21:23:42.412Z,95776.13
2023-04-02T21:26:13.576Z,95776.31
2023-04-02T21:28:41.556Z,95773.69
2023-04-02T21:31:11.050Z,95768.44
2023-04-02T21:33:41.562Z,95779.94
2023-04-02T21:36:11.572Z,95777.34
2023-04-02T21:38:44.240Z,95778.31
2023-04-02T21:41:17.246Z,95776.72
2023-04-02T21:43:45.488Z,95771.06
2023-04-02T21:46:12.770Z,95771.88
2023-04-02T21:48:41.050Z,95781.13
2023-04-02T21:51:10.735Z,95779.34
2023-04-02T21:53:39.129Z,95775.91
2023-04-02T21:56:11.253Z,95776.09
2023-04-02T21:58:38.387Z,95777.09
2023-04-02T22:01:08.996Z,95780.72
2023-04-02T22:03:39.337Z,95774.25
2023-04-02T22:06:08.893Z,95774.88
2023-04-02T22:08:38.130Z,95770.88
2023-04-02T22:11:09.209Z,95768.63
2023-04-02T22:13:37.390Z,95779.09
2023-04-02T22:16:07.985Z,95774.47
2023-04-02T22:18:35.188Z,95772.41
2023-04-02T22:21:02.343Z,95781.72
2023-04-02T22:23:30.310Z,95772.78
2023-04-02T22:25:59.231Z,95773.81
2023-04-02T22:28:28.770Z,95767.94
2023-04-02T22:31:03.484Z,95763.13
2023-04-02T22:33:30.869Z,95758.47
2023-04-02T22:35:58.870Z,95758.44
2023-04-02T22:38:27.028Z,95759.22
2023-04-02T22:41:03.630Z,95758.56
2023-04-02T22:43:32.247Z,95758.56
2023-04-02T22:45:59.795Z,95752.28
2023-04-02T22:48:27.456Z,95761.13
2023-04-02T22:50:54.891Z,95758.75
2023-04-02T22:53:22.026Z,95757.94
2023-04-02T22:55:49.906Z,95764.63
2023-04-02T22:58:17.164Z,95758.75
2023-04-02T23:00:47.118Z,95756.72
2023-04-02T23:03:14.349Z,95754.31
2023-04-02T23:05:41.458Z,95748.66
2023-04-02T23:08:08.547Z,95745.25
2023-04-02T23:10:36.134Z,95750.09
2023-04-02T23:13:03.488Z,95755.19
2023-04-02T23:15:30.669Z,95758.81
2023-04-02T23:17:59.282Z,95761.25
2023-04-02T23:20:26.511Z,95758.91
2023-04-02T23:22:53.759Z,95756.50
2023-04-02T23:25:20.950Z,95750.88
2023-04-02T23:27:48.512Z,95752.72
2023-04-02T23:30:15.816Z,95740.41
2023-04-02T23:32:42.990Z,95744.25
2023-04-02T23:35:11.725Z,95740.44
2023-04-02T23:37:38.890Z,95746.50
2023-04-02T23:40:07.997Z,95743.25
2023-04-02T23:42:35.113Z,95746.50
2023-04-02T23:45:02.292Z,95748.50
2023-04-02T23:47:29.411Z,95747.66
2023-04-02T23:49:56.631Z,95741.81
2023-04-02T23:52:25.611Z,95743.81
2023-04-02T23:54:52.749Z,95742.22
2023-04-02T23:57:19.956Z,95739.78
2023-04-02T23:59:47.279Z,95739.97
